Mid Delta Regional Airport
KGLH : rendu visible

Aérodrome :











RETROUVEZ-NOUS SUR...

 
LOGIN :

S'inscrire | Disclaimer

   EN    FR    IT 

 









Légende :    VFR   VFR Marginal   IFR   IFR Intensif   IFR Très Intensif
Visi : 
Plafond : 
>= 8 km
>= 3000ft
5 à 8 km
1000 à 3000 ft
1500m à 5 km
500 à 1000 ft
800 à 1500m
200 à 500 ft
< 800m
< 200 ft
Symboles :   Orages  Brouillard  Fortes neiges  Fortes précipitations  Vent > 20 kt







- Altitude de l'aérodrome : 131 ft
- Code IATA : GLH


KGLH - Mid Delta Regional

DERNIER METAR :
  • 192353Z AUTO 18011KT 10SM CLR 26/22 A2987 RMK AO2 LTG DSNT N SLP120 T02610217 10294 20256 58004

METARs EXPIRÉS :
  • 192253Z 19011KT 10SM CLR 28/22 A2988 RMK AO2 SLP124 T02780217
  • 192153Z 22012KT 10SM FEW046 29/22 A2989 RMK AO2 SLP125 T02890217

TAF KGLH
Valide du 20 à 00h jusqu'au 21 à 00h UTC


192332Z 2000/2024 20007KT P6SM VCTS SCT050CB BKN250
FM200200 18006KT P6SM SCT250
FM201100 08005KT P6SM BKN015
FM201500 08006KT P6SM FEW030 SCT250
FIR KZME / Amérique du Nord



MET'MAP, la Météo Aéronautique d'un coup d'oeil ! - Copyright ORBIFLY Décembre 2007 - Disclaimer

ORBIFLY MET'MAP TEAM :

Programmation & Développement : Alexandra Zaïnal
Conception & Développement : Baudouin d'Aumeries
Co-Programmation & Développement : Marc-Olivier Méhu
Soutien technique & logistique : Manuel Goepfert

Contact : metmap@orbifly.com




SOURCES & CREDITS :

   NOAA       Earth
Advisory